Auburn, Missouri
Current Conditions -  °F | °C
As of 4:54 PM on Thursday 20 Nov 2014 (Local Time) from KSET Reporting Station
Clear Clear  
Wind Chill: 33°   Ceiling: Unl
Heat Index: 33°   Visibility: 10mi
Dew Point: 19°   Wind: 0mph
Humidity: 56%   Direction: NA
Pressure: 30.23"   Gusts: NA
Location:  39.1646°N, 90.8436°W
Report Text: KSET 202254Z AUTO 00000KT 10SM CLR 01/M07 A3023 RMK AO2 SLP240 T00061072
Loading
Personal Weather Stations






























Interactive Weather Map New forecast layout! Learn more

10-Day Weather Forecast

Advertisements
Track Severe Weather on mobile